San Remo, Italy

3:10 PM CEST on September 05, 2015 (GMT +0200)
Arma di Taggia | | Change Station
CLOSE
Current Station
Personal Weather Station
Location: Taggia, LIGURIA
Elevation: 36 ft
Nearby Weather Stations

Elev 36 ft 43.83 °N, 7.86 °E | Updated 8 seconds ago

Partly Cloudy
Partly Cloudy
80.4 °F
Feels Like 80 °F
N
2.5
Wind Variable Wind from South
Gusts 2.5 mph

Today
High -- | Low -- °F
--% Chance of Precip.
Yesterday
High -- | Low -- °F
Precip. -- in
6:56 AM 7:58 PM
Waning Gibbous, 49% visible
Pressure 29.77 in
Visibility 6.2 miles
Clouds Few 3000 ft
Heat Index 80 °F
Dew Point 55 °F
Humidity 40%
Rainfall 0.00 in
Snow Depth Not available.
UV 8 out of 12
Pollen Not available.
Air Quality Not available.
Flu Activity Not available.
METAR LFMN 051300Z 02010KT 9999 FEW030 29/08 Q1008 NOSIG
Pressure 29.77 in
Visibility 6.2 miles
Clouds Few 3000 ft
Heat Index 80 °F
Dew Point 55 °F
Humidity 40%
Rainfall 0.00 in
Snow Depth Not available.
UV 8 out of 12
Pollen Not available.
Air Quality Not available.
Flu Activity Not available.
METAR LFMN 051300Z 02010KT 9999 FEW030 29/08 Q1008 NOSIG

10-Day Weather Forecast

×

Almanac

Astronomy

Sep. 05, 2015 Rise Set
Actual Time
Civil Twilight
Nautical Twilight
Astronomical Twilight
Moon
Length of Visible Light
Length of Day
Tomorrow will be .
, % of the Moon is Illuminated

Today's Extremes

Country Highs Country Lows

Community

WunderPhotos

Upload Photos

1,852,454 photos uploaded!

WunderBlogs® & News

Nearby

Air Quality

  Air Quality AQ Index Pollutant
Not available.

Snow Depth

Station Depth Elevation

Earthquake Activity

City Distance Mag. Time & Date
Minimum magnitude displayed is 2.5.

Coastal Water Temperatures

Place Temperature

Stations

Nearby Weather Stations

Station Location Temp. Windchill Dew Point Humidity Wind Precip. Elev Updated Type